Time;durP1;ratioP1;P1;durP2;ratioP2;P2;SDS_P1;SDS_P2;PMS_P1;PMS_P2;Temp;Humidity;BMP_temperature;BMP_pressure;BME280_temperature;BME280_humidity;BME280_pressure;Samples;Min_cycle;Max_cycle;Signal;HPM_P1;HPM_P2
2022/01/03 00:00:00;;;;;;;;;;;8.80;99.90;;;;;;5035047;28;20226;-42
2022/01/03 00:02:28;;;;;;;;;;;8.90;99.90;;;;;;5015596;28;19969;-43
2022/01/03 00:04:55;;;;;;;;;;;8.90;99.90;;;;;;5034559;28;19975;-43
2022/01/03 00:07:22;;;;;;;;;;;8.90;99.90;;;;;;5033342;28;19995;-43
2022/01/03 00:09:49;;;;;;;;;;;8.90;99.90;;;;;;5008943;28;19979;-44
2022/01/03 00:12:15;;;;;;;;;;;8.90;99.90;;;;;;5034590;28;19925;-43
2022/01/03 00:14:42;;;;;;;;;;;8.90;99.90;;;;;;5034436;28;20368;-43
2022/01/03 00:17:09;;;;;;;;;;;8.90;99.90;;;;;;5032682;28;20268;-42
2022/01/03 00:19:37;;;;;;;;;;;9.00;99.90;;;;;;5034267;28;19931;-42
2022/01/03 00:22:05;;;;;;;;;;;9.00;99.90;;;;;;5016819;28;20024;-43
2022/01/03 00:24:33;;;;;;;;;;;9.00;99.90;;;;;;5048860;28;19932;-42
2022/01/03 00:27:01;;;;;;;;;;;9.10;99.90;;;;;;5016936;28;19956;-42
2022/01/03 00:29:28;;;;;;;;;;;9.10;99.90;;;;;;5033993;28;19925;-44
2022/01/03 00:31:56;;;;;;;;;;;9.10;99.90;;;;;;5034205;28;20070;-44
2022/01/03 00:34:22;;;;;;;;;;;9.10;99.90;;;;;;5033950;28;19925;-43
2022/01/03 00:36:51;;;;;;;;;;;9.20;99.90;;;;;;5036941;28;19971;-44
2022/01/03 00:39:18;;;;;;;;;;;9.20;99.90;;;;;;5008702;28;20020;-42
2022/01/03 00:41:47;;;;;;;;;;;9.20;99.90;;;;;;5033465;28;20304;-43
2022/01/03 00:44:14;;;;;;;;;;;9.20;99.90;;;;;;5016024;28;19925;-43
2022/01/03 00:46:43;;;;;;;;;;;9.30;99.90;;;;;;5033869;28;20355;-42
2022/01/03 00:49:10;;;;;;;;;;;9.20;99.90;;;;;;5032961;28;19925;-42
2022/01/03 00:51:36;;;;;;;;;;;9.20;99.90;;;;;;5033563;28;20404;-43
2022/01/03 00:54:05;;;;;;;;;;;9.20;99.90;;;;;;5033431;28;19925;-42
2022/01/03 00:56:34;;;;;;;;;;;9.30;99.90;;;;;;5040967;28;20424;-43
2022/01/03 00:59:08;;;;;;;;;;;9.30;99.90;;;;;;5016282;28;19964;-42
2022/01/03 01:01:35;;;;;;;;;;;9.30;99.90;;;;;;5032911;28;20020;-42
2022/01/03 01:04:02;;;;;;;;;;;9.20;99.90;;;;;;5015854;28;19925;-43
2022/01/03 01:06:30;;;;;;;;;;;9.30;99.90;;;;;;5015416;28;19979;-43
2022/01/03 01:08:57;;;;;;;;;;;9.30;99.90;;;;;;5033283;28;19987;-43
2022/01/03 01:11:27;;;;;;;;;;;9.30;99.90;;;;;;5015854;28;20047;-43
2022/01/03 01:13:54;;;;;;;;;;;9.30;99.90;;;;;;5033446;28;19925;-43
2022/01/03 01:16:20;;;;;;;;;;;9.30;99.90;;;;;;5015665;28;19925;-44
2022/01/03 01:18:47;;;;;;;;;;;9.20;99.90;;;;;;5015525;28;19925;-43
2022/01/03 01:21:14;;;;;;;;;;;9.30;99.90;;;;;;5032779;28;20020;-42
2022/01/03 01:23:42;;;;;;;;;;;9.20;99.90;;;;;;5015207;28;19964;-43
2022/01/03 01:28:54;;;;;;;;;;;9.20;99.90;;;;;;5032095;28;19940;-42
2022/01/03 01:31:21;;;;;;;;;;;9.30;99.90;;;;;;5033016;28;19935;-42
2022/01/03 01:33:48;;;;;;;;;;;9.30;99.90;;;;;;5015310;28;19932;-42
2022/01/03 01:36:15;;;;;;;;;;;9.30;99.90;;;;;;5049326;28;19987;-44
2022/01/03 01:38:42;;;;;;;;;;;9.30;99.90;;;;;;5033180;28;19925;-42
2022/01/03 01:41:09;;;;;;;;;;;9.20;99.90;;;;;;5015203;28;20369;-42
2022/01/03 01:43:36;;;;;;;;;;;9.30;99.90;;;;;;5015530;28;19952;-42
2022/01/03 01:46:08;;;;;;;;;;;9.30;99.90;;;;;;5014818;28;19929;-42
2022/01/03 01:48:36;;;;;;;;;;;9.30;99.90;;;;;;5008550;28;19932;-45
2022/01/03 01:51:02;;;;;;;;;;;9.30;99.90;;;;;;5031998;28;19931;-42
2022/01/03 01:53:29;;;;;;;;;;;9.30;99.90;;;;;;5029910;28;20349;-43
2022/01/03 01:55:57;;;;;;;;;;;9.30;99.90;;;;;;5032063;28;19925;-42
2022/01/03 01:58:28;;;;;;;;;;;9.30;99.90;;;;;;5014432;28;19925;-43
2022/01/03 02:00:57;;;;;;;;;;;9.30;99.90;;;;;;5032400;28;19925;-42
2022/01/03 02:03:27;;;;;;;;;;;9.20;99.90;;;;;;5014683;28;19929;-42
2022/01/03 02:05:57;;;;;;;;;;;9.20;99.90;;;;;;5032642;28;20577;-43
2022/01/03 02:08:26;;;;;;;;;;;9.20;99.90;;;;;;5031815;28;20019;-43
2022/01/03 02:10:56;;;;;;;;;;;9.20;99.90;;;;;;5014669;28;20011;-43
2022/01/03 02:13:23;;;;;;;;;;;9.20;99.90;;;;;;5014678;28;19975;-42
2022/01/03 02:15:57;;;;;;;;;;;9.20;99.90;;;;;;5025718;28;19929;-44
2022/01/03 02:18:24;;;;;;;;;;;9.20;99.90;;;;;;5014383;28;19929;-42
2022/01/03 02:20:52;;;;;;;;;;;9.20;99.90;;;;;;5014984;28;19933;-42
2022/01/03 02:23:19;;;;;;;;;;;9.20;99.90;;;;;;5028543;28;19925;-42
2022/01/03 02:25:46;;;;;;;;;;;9.20;99.90;;;;;;5014601;28;20008;-42
2022/01/03 02:28:13;;;;;;;;;;;9.20;99.90;;;;;;5014680;28;20406;-43
2022/01/03 02:30:39;;;;;;;;;;;9.20;99.90;;;;;;5015263;28;19972;-42
2022/01/03 02:33:07;;;;;;;;;;;9.10;99.90;;;;;;5028412;28;19971;-41
2022/01/03 02:35:34;;;;;;;;;;;9.10;99.90;;;;;;5031975;28;20381;-43
2022/01/03 02:38:02;;;;;;;;;;;9.00;99.90;;;;;;5014648;28;19980;-42
2022/01/03 02:40:29;;;;;;;;;;;9.00;99.90;;;;;;5014706;28;20370;-41
2022/01/03 02:42:56;;;;;;;;;;;9.00;99.90;;;;;;5031976;28;19980;-42
2022/01/03 02:45:23;;;;;;;;;;;9.00;99.90;;;;;;5022710;28;20016;-42
2022/01/03 02:47:50;;;;;;;;;;;8.90;99.90;;;;;;5014432;28;19925;-42
2022/01/03 02:50:17;;;;;;;;;;;8.90;99.90;;;;;;5013859;28;19979;-43
2022/01/03 02:52:44;;;;;;;;;;;8.90;99.90;;;;;;5032223;28;19925;-42
2022/01/03 02:55:12;;;;;;;;;;;8.90;99.90;;;;;;5030932;28;20000;-42
2022/01/03 02:57:40;;;;;;;;;;;8.80;99.90;;;;;;5014356;28;19929;-42
2022/01/03 03:00:08;;;;;;;;;;;8.80;99.90;;;;;;5047558;28;19971;-42
2022/01/03 03:02:34;;;;;;;;;;;8.80;99.90;;;;;;5031771;28;20393;-42
2022/01/03 03:05:02;;;;;;;;;;;8.90;99.90;;;;;;5015258;28;20003;-42
2022/01/03 03:07:29;;;;;;;;;;;8.80;99.90;;;;;;5017897;28;20357;-42
2022/01/03 03:09:56;;;;;;;;;;;8.80;99.90;;;;;;5030147;28;19925;-42
2022/01/03 03:12:24;;;;;;;;;;;8.80;99.90;;;;;;5035110;28;20296;-44
2022/01/03 03:14:51;;;;;;;;;;;8.80;99.90;;;;;;5035326;28;20019;-42
2022/01/03 03:17:18;;;;;;;;;;;8.80;99.90;;;;;;5051298;28;19980;-41
2022/01/03 03:19:55;;;;;;;;;;;8.80;99.90;;;;;;5034911;28;19991;-41
2022/01/03 03:22:21;;;;;;;;;;;8.80;99.90;;;;;;5035152;28;20401;-42
2022/01/03 03:24:48;;;;;;;;;;;8.80;99.90;;;;;;5034985;28;20085;-42
2022/01/03 03:27:15;;;;;;;;;;;8.70;99.90;;;;;;5034561;28;19932;-41
2022/01/03 03:29:47;;;;;;;;;;;8.80;99.90;;;;;;5017753;28;19964;-42
2022/01/03 03:32:14;;;;;;;;;;;8.80;99.90;;;;;;5035076;28;19929;-41
2022/01/03 03:34:41;;;;;;;;;;;8.80;99.90;;;;;;5035493;28;19948;-41
2022/01/03 03:37:08;;;;;;;;;;;8.80;99.90;;;;;;5034636;28;20471;-41
2022/01/03 03:39:36;;;;;;;;;;;8.80;99.90;;;;;;5035084;28;19968;-42
2022/01/03 03:42:04;;;;;;;;;;;8.80;99.90;;;;;;5016706;28;19928;-41
2022/01/03 03:44:30;;;;;;;;;;;8.80;99.90;;;;;;5017772;28;19980;-41
2022/01/03 03:46:58;;;;;;;;;;;8.80;99.90;;;;;;5050320;28;19925;-42
2022/01/03 03:49:25;;;;;;;;;;;8.80;99.90;;;;;;5017135;28;19925;-42
2022/01/03 03:51:52;;;;;;;;;;;8.80;99.90;;;;;;5016905;28;19925;-41
2022/01/03 03:54:19;;;;;;;;;;;8.80;99.90;;;;;;5049857;28;20381;-41
2022/01/03 03:56:46;;;;;;;;;;;8.80;99.90;;;;;;5034328;28;20289;-41
2022/01/03 03:59:15;;;;;;;;;;;8.80;99.90;;;;;;5034220;28;19929;-42
2022/01/03 04:01:42;;;;;;;;;;;8.80;99.90;;;;;;5034719;28;19978;-42
2022/01/03 04:04:10;;;;;;;;;;;8.80;99.90;;;;;;5034643;28;19932;-41
2022/01/03 04:06:37;;;;;;;;;;;8.80;99.90;;;;;;5032053;28;20020;-42
2022/01/03 04:09:03;;;;;;;;;;;8.90;99.90;;;;;;5034115;28;19942;-43
2022/01/03 04:11:30;;;;;;;;;;;8.90;99.90;;;;;;5016711;28;19971;-42
2022/01/03 04:13:57;;;;;;;;;;;8.90;99.90;;;;;;5034639;28;19929;-42
2022/01/03 04:16:24;;;;;;;;;;;8.90;99.90;;;;;;5033689;28;20008;-41
2022/01/03 04:18:51;;;;;;;;;;;9.00;99.90;;;;;;5016617;28;19951;-42
2022/01/03 04:21:19;;;;;;;;;;;9.00;99.90;;;;;;5049652;28;19972;-42
2022/01/03 04:23:46;;;;;;;;;;;9.00;99.90;;;;;;5016315;28;20015;-42
2022/01/03 04:26:13;;;;;;;;;;;9.00;99.90;;;;;;5034024;28;19929;-42
2022/01/03 04:28:39;;;;;;;;;;;9.10;99.90;;;;;;5016367;28;20381;-43
2022/01/03 04:31:06;;;;;;;;;;;9.10;99.90;;;;;;5024206;28;19925;-41
2022/01/03 04:33:33;;;;;;;;;;;9.10;99.90;;;;;;5033933;28;19983;-42
2022/01/03 04:36:01;;;;;;;;;;;9.10;99.90;;;;;;5044489;28;20472;-42
2022/01/03 04:38:29;;;;;;;;;;;9.10;99.90;;;;;;4997552;28;19929;-42
2022/01/03 04:40:56;;;;;;;;;;;9.10;99.90;;;;;;5016798;28;20333;-42
2022/01/03 04:43:23;;;;;;;;;;;9.10;99.90;;;;;;5033160;28;19928;-42
2022/01/03 04:45:50;;;;;;;;;;;9.10;99.90;;;;;;5018148;28;19925;-44
2022/01/03 04:48:17;;;;;;;;;;;9.20;99.90;;;;;;5049474;28;19952;-42
2022/01/03 04:50:44;;;;;;;;;;;9.20;99.90;;;;;;5033451;28;19971;-42
2022/01/03 04:53:11;;;;;;;;;;;9.20;99.90;;;;;;5033491;28;19972;-43
2022/01/03 04:55:39;;;;;;;;;;;9.20;99.90;;;;;;5023248;28;19925;-42
2022/01/03 04:58:06;;;;;;;;;;;9.20;99.90;;;;;;5033649;28;20008;-42
2022/01/03 05:00:32;;;;;;;;;;;9.20;99.90;;;;;;5033034;28;20011;-43
2022/01/03 05:02:59;;;;;;;;;;;9.20;99.90;;;;;;5033049;28;20463;-43
2022/01/03 05:05:26;;;;;;;;;;;9.20;99.90;;;;;;5032358;28;20385;-41
2022/01/03 05:07:53;;;;;;;;;;;9.20;99.90;;;;;;5015295;28;20020;-42
2022/01/03 05:10:19;;;;;;;;;;;9.20;99.90;;;;;;5033218;28;19956;-43
2022/01/03 05:12:47;;;;;;;;;;;9.20;99.90;;;;;;5031517;28;19971;-42
2022/01/03 05:15:14;;;;;;;;;;;9.20;99.90;;;;;;5015433;28;19971;-43
2022/01/03 05:17:41;;;;;;;;;;;9.20;99.90;;;;;;5032779;28;19931;-42
2022/01/03 05:20:08;;;;;;;;;;;9.20;99.90;;;;;;5015439;28;20407;-41
2022/01/03 05:22:35;;;;;;;;;;;9.20;99.90;;;;;;5033112;28;19932;-42
2022/01/03 05:25:02;;;;;;;;;;;9.30;99.90;;;;;;5033032;28;19933;-42
2022/01/03 05:27:29;;;;;;;;;;;9.20;99.90;;;;;;5029195;28;20022;-43
2022/01/03 05:29:57;;;;;;;;;;;9.20;99.90;;;;;;5030169;28;19929;-41
2022/01/03 05:32:24;;;;;;;;;;;9.30;99.90;;;;;;5032673;28;20007;-42
2022/01/03 05:34:51;;;;;;;;;;;9.20;99.90;;;;;;5031976;28;19979;-42
2022/01/03 05:37:17;;;;;;;;;;;9.20;99.90;;;;;;5032072;28;19926;-42
2022/01/03 05:39:44;;;;;;;;;;;9.20;99.90;;;;;;5032165;28;19925;-42
2022/01/03 05:42:11;;;;;;;;;;;9.20;99.90;;;;;;5032009;28;20377;-41
2022/01/03 05:44:38;;;;;;;;;;;9.10;99.90;;;;;;5015596;28;19979;-42
2022/01/03 05:47:06;;;;;;;;;;;9.00;99.90;;;;;;5032645;28;20026;-41
2022/01/03 05:49:33;;;;;;;;;;;9.00;99.90;;;;;;5015296;28;19929;-42
2022/01/03 05:52:00;;;;;;;;;;;9.00;99.90;;;;;;5032410;28;20308;-42
2022/01/03 05:54:26;;;;;;;;;;;9.00;99.90;;;;;;5031472;28;19975;-41
2022/01/03 05:56:53;;;;;;;;;;;9.00;99.90;;;;;;5014955;28;19968;-42
2022/01/03 05:59:20;;;;;;;;;;;9.00;99.90;;;;;;5015076;28;20011;-43
2022/01/03 06:01:47;;;;;;;;;;;9.00;99.90;;;;;;5032097;28;19932;-42
2022/01/03 06:04:21;;;;;;;;;;;9.00;99.90;;;;;;5014831;28;19929;-41
2022/01/03 06:06:55;;;;;;;;;;;9.00;99.90;;;;;;5032102;28;19931;-42
2022/01/03 06:09:23;;;;;;;;;;;9.10;99.90;;;;;;5032099;28;19956;-42
2022/01/03 06:11:50;;;;;;;;;;;9.00;99.90;;;;;;5031780;28;19971;-41
2022/01/03 06:14:17;;;;;;;;;;;9.00;99.90;;;;;;5014964;28;19925;-42
2022/01/03 06:16:44;;;;;;;;;;;9.10;99.90;;;;;;5014363;28;20647;-43
2022/01/03 06:19:11;;;;;;;;;;;9.00;99.90;;;;;;5046243;28;20012;-42
2022/01/03 06:21:41;;;;;;;;;;;9.00;99.90;;;;;;5032253;28;19925;-44
2022/01/03 06:24:08;;;;;;;;;;;9.00;99.90;;;;;;5048079;28;19928;-42
2022/01/03 06:26:35;;;;;;;;;;;9.00;99.90;;;;;;5010593;28;19925;-42
2022/01/03 06:29:02;;;;;;;;;;;9.00;99.90;;;;;;5023560;28;19994;-43
2022/01/03 06:31:32;;;;;;;;;;;9.00;99.90;;;;;;5014098;28;20023;-42
2022/01/03 06:33:59;;;;;;;;;;;9.00;99.90;;;;;;5014870;28;19925;-42
2022/01/03 06:36:26;;;;;;;;;;;8.90;99.90;;;;;;5029120;28;19925;-43
2022/01/03 06:38:54;;;;;;;;;;;8.90;99.90;;;;;;5012098;28;20347;-43
2022/01/03 06:41:21;;;;;;;;;;;8.90;99.90;;;;;;5015174;28;20384;-42
2022/01/03 06:43:48;;;;;;;;;;;8.90;99.90;;;;;;5013224;28;19947;-42
2022/01/03 06:46:14;;;;;;;;;;;8.80;99.90;;;;;;5012990;28;19976;-42
2022/01/03 06:48:42;;;;;;;;;;;8.80;99.90;;;;;;5028555;28;20860;-45
2022/01/03 06:51:09;;;;;;;;;;;8.80;99.90;;;;;;5010852;28;20278;-44
2022/01/03 06:53:35;;;;;;;;;;;8.90;99.90;;;;;;5014383;28;20294;-41
2022/01/03 06:56:04;;;;;;;;;;;8.90;99.90;;;;;;5017640;28;19972;-42
2022/01/03 06:58:31;;;;;;;;;;;8.90;99.90;;;;;;5035671;28;19925;-42
2022/01/03 07:00:58;;;;;;;;;;;8.90;99.90;;;;;;5018044;28;20297;-42
2022/01/03 07:03:25;;;;;;;;;;;8.90;99.90;;;;;;5034584;28;19925;-43
2022/01/03 07:05:52;;;;;;;;;;;8.90;99.90;;;;;;5034565;28;19972;-42
2022/01/03 07:08:21;;;;;;;;;;;8.80;99.90;;;;;;5033357;28;20449;-42
2022/01/03 07:10:48;;;;;;;;;;;8.80;99.90;;;;;;5014761;28;19940;-42
2022/01/03 07:13:16;;;;;;;;;;;8.90;99.90;;;;;;5031978;28;19960;-43
2022/01/03 07:21:12;;;;;;;;;;;8.80;99.90;;;;;;5031106;28;19925;-42
2022/01/03 07:23:39;;;;;;;;;;;8.80;99.90;;;;;;5031694;28;19925;-41
2022/01/03 07:26:05;;;;;;;;;;;8.80;99.90;;;;;;5032080;28;20024;-43
2022/01/03 07:28:33;;;;;;;;;;;8.80;99.90;;;;;;5033175;28;20116;-42
2022/01/03 07:31:00;;;;;;;;;;;8.80;99.90;;;;;;5048514;28;20042;-42
2022/01/03 07:33:27;;;;;;;;;;;8.90;99.90;;;;;;5016074;28;20436;-44
2022/01/03 07:35:54;;;;;;;;;;;8.90;99.90;;;;;;5031121;28;19929;-45
2022/01/03 07:38:21;;;;;;;;;;;8.90;99.90;;;;;;5032706;28;19964;-42
2022/01/03 07:40:47;;;;;;;;;;;9.00;99.90;;;;;;5015287;28;20292;-42
2022/01/03 07:43:14;;;;;;;;;;;8.90;99.90;;;;;;5041685;28;20022;-44
2022/01/03 07:45:42;;;;;;;;;;;8.90;99.90;;;;;;5026380;28;20020;-42
2022/01/03 07:48:09;;;;;;;;;;;9.00;99.90;;;;;;5025305;28;19926;-43
2022/01/03 07:50:36;;;;;;;;;;;9.00;99.90;;;;;;5016055;28;19960;-42
2022/01/03 07:53:04;;;;;;;;;;;9.00;99.90;;;;;;5015148;28;20348;-43
2022/01/03 07:55:31;;;;;;;;;;;9.00;99.90;;;;;;5023584;28;19937;-43
2022/01/03 07:57:57;;;;;;;;;;;9.00;99.90;;;;;;5012975;28;20279;-44
2022/01/03 08:00:24;;;;;;;;;;;9.00;99.90;;;;;;5010840;28;20045;-43
2022/01/03 08:02:52;;;;;;;;;;;9.10;99.90;;;;;;5012808;28;19965;-43
2022/01/03 08:05:19;;;;;;;;;;;9.10;99.90;;;;;;5012591;28;19925;-42
2022/01/03 08:07:46;;;;;;;;;;;9.10;99.90;;;;;;5007420;28;20401;-43
2022/01/03 08:10:13;;;;;;;;;;;9.20;99.90;;;;;;5041472;28;20313;-42
2022/01/03 08:12:40;;;;;;;;;;;9.20;99.90;;;;;;5010219;28;20348;-43
2022/01/03 08:15:07;;;;;;;;;;;9.20;99.90;;;;;;5010147;28;20019;-43
2022/01/03 08:17:34;;;;;;;;;;;9.20;99.90;;;;;;5004053;28;19925;-43
2022/01/03 08:20:03;;;;;;;;;;;9.20;99.90;;;;;;5013401;28;19960;-44
2022/01/03 08:22:29;;;;;;;;;;;9.20;99.90;;;;;;5010780;28;19961;-42
2022/01/03 08:24:56;;;;;;;;;;;9.20;99.90;;;;;;5009921;28;19979;-42
2022/01/03 08:27:23;;;;;;;;;;;9.30;99.90;;;;;;5011321;28;20019;-43
2022/01/03 08:29:50;;;;;;;;;;;9.30;99.90;;;;;;5011294;28;19933;-43
2022/01/03 08:32:16;;;;;;;;;;;9.30;99.90;;;;;;5010980;28;20351;-42
2022/01/03 08:34:43;;;;;;;;;;;9.30;99.90;;;;;;5009538;28;20377;-42
2022/01/03 08:37:11;;;;;;;;;;;9.30;99.90;;;;;;5010436;28;19977;-42
2022/01/03 08:39:38;;;;;;;;;;;9.40;99.90;;;;;;5010450;28;19933;-43
2022/01/03 08:42:05;;;;;;;;;;;9.50;99.90;;;;;;5008316;28;20024;-44
2022/01/03 08:44:32;;;;;;;;;;;9.40;99.90;;;;;;5007371;28;20394;-42
2022/01/03 08:46:58;;;;;;;;;;;9.40;99.90;;;;;;4947648;28;19947;-43
2022/01/03 08:49:25;;;;;;;;;;;9.40;99.90;;;;;;4923728;28;19934;-44
2022/01/03 08:51:52;;;;;;;;;;;9.40;99.90;;;;;;4990295;28;19977;-43
2022/01/03 08:54:20;;;;;;;;;;;9.40;99.90;;;;;;5040282;28;20004;-43
2022/01/03 08:56:47;;;;;;;;;;;9.50;99.90;;;;;;5022784;28;19992;-42
2022/01/03 08:59:14;;;;;;;;;;;9.50;99.90;;;;;;5011645;28;20290;-43
2022/01/03 09:01:40;;;;;;;;;;;9.50;99.90;;;;;;5005160;28;19972;-45
2022/01/03 09:04:07;;;;;;;;;;;9.50;99.90;;;;;;5021620;28;20011;-42
2022/01/03 09:06:35;;;;;;;;;;;9.50;99.90;;;;;;5010376;28;19931;-44
2022/01/03 09:09:02;;;;;;;;;;;9.60;99.90;;;;;;5010335;28;19929;-42
2022/01/03 09:11:30;;;;;;;;;;;9.60;99.90;;;;;;5007682;28;19987;-44
2022/01/03 09:13:57;;;;;;;;;;;9.60;99.90;;;;;;5011113;28;20465;-43
2022/01/03 09:16:24;;;;;;;;;;;9.60;99.90;;;;;;5010397;28;20007;-43
2022/01/03 09:18:50;;;;;;;;;;;9.60;99.90;;;;;;5010467;28;19925;-42
2022/01/03 09:21:17;;;;;;;;;;;9.60;99.90;;;;;;5008782;28;19948;-42
2022/01/03 09:23:48;;;;;;;;;;;9.60;99.90;;;;;;5010604;28;20016;-43
2022/01/03 09:29:00;;;;;;;;;;;9.60;99.90;;;;;;5009950;28;20015;-40
2022/01/03 09:31:30;;;;;;;;;;;9.70;99.90;;;;;;5007623;28;20463;-42
2022/01/03 09:33:58;;;;;;;;;;;9.70;99.90;;;;;;5008592;28;20344;-44
2022/01/03 09:36:25;;;;;;;;;;;9.70;99.90;;;;;;5042207;28;19964;-43
2022/01/03 09:38:51;;;;;;;;;;;9.70;99.90;;;;;;5006931;28;19932;-40
2022/01/03 09:41:18;;;;;;;;;;;9.70;99.90;;;;;;5010719;28;19926;-40
2022/01/03 09:43:49;;;;;;;;;;;9.80;99.90;;;;;;5010572;28;19999;-44
2022/01/03 09:46:19;;;;;;;;;;;9.80;99.90;;;;;;5008553;28;19980;-42
2022/01/03 09:48:51;;;;;;;;;;;9.80;99.90;;;;;;5011058;28;19952;-41
2022/01/03 09:51:18;;;;;;;;;;;9.80;99.90;;;;;;5008937;28;19929;-42
2022/01/03 09:53:45;;;;;;;;;;;9.80;99.90;;;;;;5013527;28;19929;-41
2022/01/03 09:56:11;;;;;;;;;;;9.80;99.90;;;;;;5013392;28;20423;-41
2022/01/03 09:58:38;;;;;;;;;;;9.80;99.90;;;;;;5012884;28;19925;-41
2022/01/03 10:01:05;;;;;;;;;;;9.90;99.90;;;;;;5029782;28;19925;-41
2022/01/03 10:03:33;;;;;;;;;;;9.90;99.90;;;;;;5030306;28;19929;-41
2022/01/03 10:06:00;;;;;;;;;;;9.90;99.90;;;;;;4989555;28;21886;-41
2022/01/03 10:08:27;;;;;;;;;;;10.00;99.90;;;;;;4988483;28;19968;-41
2022/01/03 10:10:53;;;;;;;;;;;10.00;99.90;;;;;;4970165;28;20725;-44
2022/01/03 10:13:20;;;;;;;;;;;10.00;99.90;;;;;;5029834;28;20632;-43
2022/01/03 10:15:47;;;;;;;;;;;10.00;99.90;;;;;;5028444;28;20030;-41
2022/01/03 10:18:18;;;;;;;;;;;9.90;99.90;;;;;;5044940;28;20013;-40
2022/01/03 10:20:46;;;;;;;;;;;10.00;99.90;;;;;;5011802;28;20222;-42
2022/01/03 10:23:14;;;;;;;;;;;10.00;99.90;;;;;;5012742;28;19979;-43
2022/01/03 10:25:41;;;;;;;;;;;10.00;99.90;;;;;;5012659;28;19925;-42
2022/01/03 10:28:08;;;;;;;;;;;10.00;99.90;;;;;;5014050;28;19960;-42
2022/01/03 10:30:36;;;;;;;;;;;10.00;99.90;;;;;;5025501;28;19925;-41
2022/01/03 10:33:06;;;;;;;;;;;10.00;99.90;;;;;;5027537;28;19925;-41
2022/01/03 10:35:36;;;;;;;;;;;10.00;99.90;;;;;;5011063;28;19933;-41
2022/01/03 10:38:05;;;;;;;;;;;10.00;99.90;;;;;;5031032;28;20341;-41
2022/01/03 10:40:31;;;;;;;;;;;10.00;99.90;;;;;;5012610;28;19964;-42
2022/01/03 10:42:58;;;;;;;;;;;10.00;99.90;;;;;;5029281;28;20384;-41
2022/01/03 10:45:29;;;;;;;;;;;10.00;99.90;;;;;;5026916;28;20346;-42
2022/01/03 10:47:56;;;;;;;;;;;10.00;99.90;;;;;;5009264;28;19935;-42
2022/01/03 10:50:22;;;;;;;;;;;10.00;99.90;;;;;;5044981;28;19972;-42
2022/01/03 10:52:49;;;;;;;;;;;10.00;99.90;;;;;;5030966;28;20316;-41
2022/01/03 10:55:18;;;;;;;;;;;10.10;99.90;;;;;;5012101;28;20214;-41
2022/01/03 10:57:46;;;;;;;;;;;10.10;99.90;;;;;;5031160;28;20016;-42
2022/01/03 11:00:14;;;;;;;;;;;10.10;99.90;;;;;;5013969;28;20431;-43
2022/01/03 11:02:40;;;;;;;;;;;10.10;99.90;;;;;;5012921;28;19933;-42
2022/01/03 11:05:11;;;;;;;;;;;10.20;99.90;;;;;;5012397;28;19933;-42
2022/01/03 11:13:09;;;;;;;;;;;10.20;99.90;;;;;;5031159;28;20254;-40
2022/01/03 11:15:36;;;;;;;;;;;10.30;99.90;;;;;;5010903;28;19933;-41
2022/01/03 11:18:10;;;;;;;;;;;10.30;99.90;;;;;;5045683;28;19972;-42
2022/01/03 11:20:37;;;;;;;;;;;10.40;99.90;;;;;;5044049;28;19980;-41
2022/01/03 11:23:04;;;;;;;;;;;10.40;99.90;;;;;;5035639;28;19928;-43
2022/01/03 11:25:33;;;;;;;;;;;10.40;99.90;;;;;;5024831;28;19993;-43
2022/01/03 11:28:00;;;;;;;;;;;10.40;99.90;;;;;;5034189;28;19929;-41
2022/01/03 11:30:26;;;;;;;;;;;10.40;99.90;;;;;;5016894;28;20012;-42
2022/01/03 11:32:54;;;;;;;;;;;10.40;99.90;;;;;;5045680;28;20416;-43
2022/01/03 11:35:21;;;;;;;;;;;10.40;99.90;;;;;;5030068;28;19980;-44
2022/01/03 11:37:48;;;;;;;;;;;10.30;99.90;;;;;;5030535;28;19964;-41
2022/01/03 11:40:15;;;;;;;;;;;10.40;99.90;;;;;;5010177;28;19925;-41
2022/01/03 11:42:43;;;;;;;;;;;10.40;99.90;;;;;;5049296;28;19979;-42
2022/01/03 11:45:10;;;;;;;;;;;10.40;99.90;;;;;;5037665;28;19933;-42
2022/01/03 11:47:37;;;;;;;;;;;10.40;99.90;;;;;;5029961;28;20397;-43
2022/01/03 11:50:04;;;;;;;;;;;10.40;99.90;;;;;;5039969;28;20361;-43
2022/01/03 11:52:33;;;;;;;;;;;10.40;99.90;;;;;;5030494;28;19926;-41
2022/01/03 11:55:01;;;;;;;;;;;10.40;99.90;;;;;;5022716;28;20343;-43
2022/01/03 11:57:40;;;;;;;;;;;10.50;99.90;;;;;;5038444;28;19925;-44
2022/01/03 12:05:44;;;;;;;;;;;10.60;99.90;;;;;;5023581;28;19925;-42
2022/01/03 12:08:16;;;;;;;;;;;10.60;99.90;;;;;;5030490;28;20385;-41
2022/01/03 12:10:46;;;;;;;;;;;10.70;99.90;;;;;;5016403;28;19968;-41
2022/01/03 12:13:13;;;;;;;;;;;10.70;99.90;;;;;;5035369;28;19939;-41
2022/01/03 12:15:41;;;;;;;;;;;10.70;99.90;;;;;;5034157;28;20279;-42
2022/01/03 12:18:23;;;;;;;;;;;10.80;99.90;;;;;;5041987;28;19929;-41
2022/01/03 12:20:49;;;;;;;;;;;10.80;99.90;;;;;;5023031;28;20459;-41
2022/01/03 12:23:31;;;;;;;;;;;10.90;99.90;;;;;;5038411;28;19939;-42
2022/01/03 12:26:07;;;;;;;;;;;10.90;99.90;;;;;;5019888;28;20280;-40
2022/01/03 12:28:49;;;;;;;;;;;10.90;99.90;;;;;;5044362;28;20380;-42
2022/01/03 12:31:17;;;;;;;;;;;10.90;99.90;;;;;;5045739;28;19972;-42
2022/01/03 12:33:43;;;;;;;;;;;10.90;99.90;;;;;;5020104;28;19933;-42
2022/01/03 12:36:14;;;;;;;;;;;10.90;99.90;;;;;;5049016;28;19994;-41
2022/01/03 12:38:41;;;;;;;;;;;10.90;99.90;;;;;;5035512;28;20323;-42
2022/01/03 12:41:08;;;;;;;;;;;11.00;99.90;;;;;;5026726;28;19973;-44
2022/01/03 12:43:47;;;;;;;;;;;10.90;99.90;;;;;;5034472;28;20290;-41
2022/01/03 12:46:20;;;;;;;;;;;11.00;99.90;;;;;;5016738;28;19936;-44
2022/01/03 12:48:46;;;;;;;;;;;11.00;99.90;;;;;;5028137;28;20361;-41
2022/01/03 12:51:15;;;;;;;;;;;11.00;99.90;;;;;;5029990;28;19929;-42
2022/01/03 12:53:47;;;;;;;;;;;10.90;99.90;;;;;;5027124;28;20375;-42
2022/01/03 12:56:14;;;;;;;;;;;10.90;99.90;;;;;;5030601;28;19933;-42
2022/01/03 12:58:41;;;;;;;;;;;10.90;99.90;;;;;;5012843;28;19926;-41
2022/01/03 13:01:10;;;;;;;;;;;10.80;99.90;;;;;;5030526;28;19964;-41
2022/01/03 13:03:43;;;;;;;;;;;10.80;99.90;;;;;;5029990;28;19925;-41
2022/01/03 13:06:10;;;;;;;;;;;10.80;99.90;;;;;;5030746;28;19925;-40
2022/01/03 13:08:38;;;;;;;;;;;10.70;99.90;;;;;;5029887;28;19925;-44
2022/01/03 13:11:06;;;;;;;;;;;10.70;99.90;;;;;;5026956;28;19960;-41
2022/01/03 13:13:33;;;;;;;;;;;10.70;99.90;;;;;;4998839;28;19925;-40
2022/01/03 13:15:59;;;;;;;;;;;10.70;99.90;;;;;;5014499;28;19964;-41
2022/01/03 13:18:26;;;;;;;;;;;10.60;99.90;;;;;;5031548;28;20121;-41
2022/01/03 13:20:57;;;;;;;;;;;10.70;99.90;;;;;;5048261;28;20008;-41
2022/01/03 13:23:24;;;;;;;;;;;10.60;99.90;;;;;;5033656;28;19986;-41
2022/01/03 13:25:51;;;;;;;;;;;10.70;99.90;;;;;;5014926;28;20037;-41
2022/01/03 13:28:18;;;;;;;;;;;10.70;99.90;;;;;;5016672;28;20155;-42
2022/01/03 13:30:59;;;;;;;;;;;10.70;99.90;;;;;;5034384;28;19975;-41
2022/01/03 13:33:25;;;;;;;;;;;10.70;99.90;;;;;;5013255;28;19925;-42
2022/01/03 13:36:00;;;;;;;;;;;10.70;99.90;;;;;;5033031;28;19931;-41
2022/01/03 13:38:28;;;;;;;;;;;10.70;99.90;;;;;;5033890;28;19932;-41
2022/01/03 13:40:55;;;;;;;;;;;10.70;99.90;;;;;;5031276;28;19940;-41
2022/01/03 13:43:28;;;;;;;;;;;10.70;99.90;;;;;;5030316;28;19925;-41
2022/01/03 13:51:24;;;;;;;;;;;10.70;99.90;;;;;;5029823;28;19926;-41
2022/01/03 13:53:51;;;;;;;;;;;10.70;99.90;;;;;;5012227;28;19994;-41
2022/01/03 13:56:18;;;;;;;;;;;10.70;99.90;;;;;;5034299;28;20369;-40
2022/01/03 13:58:45;;;;;;;;;;;10.70;99.90;;;;;;5017239;28;20016;-41
2022/01/03 14:01:12;;;;;;;;;;;10.70;99.90;;;;;;5046937;28;19928;-41
2022/01/03 14:03:39;;;;;;;;;;;10.70;99.90;;;;;;5014796;28;19933;-40
2022/01/03 14:06:15;;;;;;;;;;;10.70;99.90;;;;;;5031037;28;19929;-42
2022/01/03 14:08:45;;;;;;;;;;;10.70;99.90;;;;;;5019051;28;19925;-41
2022/01/03 14:11:12;;;;;;;;;;;10.70;99.90;;;;;;5035539;28;19925;-40
2022/01/03 14:13:39;;;;;;;;;;;10.70;99.90;;;;;;5014878;28;20294;-41
2022/01/03 14:16:06;;;;;;;;;;;10.70;99.90;;;;;;5033744;28;19947;-42
2022/01/03 14:18:34;;;;;;;;;;;10.70;99.90;;;;;;5031500;28;19933;-40
2022/01/03 14:21:07;;;;;;;;;;;10.60;99.90;;;;;;5012724;28;20396;-42
2022/01/03 14:23:34;;;;;;;;;;;10.60;99.90;;;;;;5029955;28;19929;-40
2022/01/03 14:26:12;;;;;;;;;;;10.60;99.90;;;;;;5033558;28;20012;-41
2022/01/03 14:28:39;;;;;;;;;;;10.60;99.90;;;;;;5014354;28;19960;-41
2022/01/03 14:31:06;;;;;;;;;;;10.50;99.90;;;;;;5015255;28;19964;-41
2022/01/03 14:33:34;;;;;;;;;;;10.50;99.90;;;;;;5012126;28;19925;-40
2022/01/03 14:36:11;;;;;;;;;;;10.50;99.90;;;;;;5015190;28;19933;-40
2022/01/03 14:38:40;;;;;;;;;;;10.50;99.90;;;;;;5012937;28;20569;-40
2022/01/03 14:41:07;;;;;;;;;;;10.40;99.90;;;;;;5031947;28;19933;-42
2022/01/03 14:43:36;;;;;;;;;;;10.30;99.90;;;;;;5014988;28;20297;-40
2022/01/03 14:46:05;;;;;;;;;;;10.30;99.90;;;;;;5031723;28;19972;-42
2022/01/03 14:48:32;;;;;;;;;;;10.30;99.90;;;;;;5028520;28;19925;-40
2022/01/03 14:51:04;;;;;;;;;;;10.20;99.90;;;;;;5030596;28;19939;-41
2022/01/03 14:53:31;;;;;;;;;;;10.20;99.90;;;;;;5027172;28;20010;-40
2022/01/03 14:55:58;;;;;;;;;;;10.20;99.90;;;;;;5047657;28;19932;-40